sensor_id;sensor_type;location;lat;lon;timestamp;P1;durP1;ratioP1;P2;durP2;ratioP2
21505;SDS011;10914;48.886;9.394;2023-05-10T00:01:14;44.50;;;42.45;;
21505;SDS011;10914;48.886;9.394;2023-05-10T00:03:39;48.83;;;46.53;;
21505;SDS011;10914;48.886;9.394;2023-05-10T00:06:05;41.10;;;39.15;;
21505;SDS011;10914;48.886;9.394;2023-05-10T00:08:30;33.63;;;32.08;;
21505;SDS011;10914;48.886;9.394;2023-05-10T00:10:55;40.33;;;38.15;;
21505;SDS011;10914;48.886;9.394;2023-05-10T00:13:22;30.98;;;29.50;;
21505;SDS011;10914;48.886;9.394;2023-05-10T00:15:47;75.80;;;72.30;;
21505;SDS011;10914;48.886;9.394;2023-05-10T00:18:12;67.33;;;64.23;;
21505;SDS011;10914;48.886;9.394;2023-05-10T00:20:37;62.35;;;59.25;;
21505;SDS011;10914;48.886;9.394;2023-05-10T00:23:02;47.40;;;45.10;;
21505;SDS011;10914;48.886;9.394;2023-05-10T00:25:28;29.05;;;27.73;;
21505;SDS011;10914;48.886;9.394;2023-05-10T00:27:53;28.38;;;27.08;;
21505;SDS011;10914;48.886;9.394;2023-05-10T00:30:20;30.42;;;28.83;;
21505;SDS011;10914;48.886;9.394;2023-05-10T00:32:45;31.67;;;29.95;;
21505;SDS011;10914;48.886;9.394;2023-05-10T00:35:10;30.35;;;28.95;;
21505;SDS011;10914;48.886;9.394;2023-05-10T00:37:36;34.22;;;32.65;;
21505;SDS011;10914;48.886;9.394;2023-05-10T00:40:01;31.80;;;30.42;;
21505;SDS011;10914;48.886;9.394;2023-05-10T00:42:26;25.23;;;24.13;;
21505;SDS011;10914;48.886;9.394;2023-05-10T00:44:51;29.02;;;27.73;;
21505;SDS011;10914;48.886;9.394;2023-05-10T00:47:17;24.27;;;23.17;;
21505;SDS011;10914;48.886;9.394;2023-05-10T00:49:42;19.90;;;19.08;;
21505;SDS011;10914;48.886;9.394;2023-05-10T00:52:08;20.38;;;19.38;;
21505;SDS011;10914;48.886;9.394;2023-05-10T00:54:33;24.08;;;23.05;;
21505;SDS011;10914;48.886;9.394;2023-05-10T00:56:58;23.27;;;22.25;;
21505;SDS011;10914;48.886;9.394;2023-05-10T00:59:24;25.80;;;24.70;;
21505;SDS011;10914;48.886;9.394;2023-05-10T01:01:49;26.20;;;24.75;;
21505;SDS011;10914;48.886;9.394;2023-05-10T01:04:15;25.83;;;24.65;;
21505;SDS011;10914;48.886;9.394;2023-05-10T01:06:40;25.45;;;24.35;;
21505;SDS011;10914;48.886;9.394;2023-05-10T01:09:06;25.48;;;24.38;;
21505;SDS011;10914;48.886;9.394;2023-05-10T01:11:32;38.28;;;36.58;;
21505;SDS011;10914;48.886;9.394;2023-05-10T01:13:58;31.10;;;29.70;;
21505;SDS011;10914;48.886;9.394;2023-05-10T01:16:23;27.33;;;26.02;;
21505;SDS011;10914;48.886;9.394;2023-05-10T01:18:48;28.70;;;27.40;;
21505;SDS011;10914;48.886;9.394;2023-05-10T01:21:19;33.65;;;32.05;;
21505;SDS011;10914;48.886;9.394;2023-05-10T01:34:16;31.98;;;30.55;;
21505;SDS011;10914;48.886;9.394;2023-05-10T01:36:51;31.65;;;30.15;;
21505;SDS011;10914;48.886;9.394;2023-05-10T01:44:18;30.63;;;29.08;;
21505;SDS011;10914;48.886;9.394;2023-05-10T01:46:46;36.60;;;34.97;;
21505;SDS011;10914;48.886;9.394;2023-05-10T01:49:16;34.58;;;33.03;;
21505;SDS011;10914;48.886;9.394;2023-05-10T01:51:47;29.65;;;28.25;;
21505;SDS011;10914;48.886;9.394;2023-05-10T01:54:13;31.10;;;29.70;;
21505;SDS011;10914;48.886;9.394;2023-05-10T01:56:40;27.88;;;26.58;;
21505;SDS011;10914;48.886;9.394;2023-05-10T01:59:09;22.27;;;21.27;;
21505;SDS011;10914;48.886;9.394;2023-05-10T02:01:36;25.58;;;24.40;;
21505;SDS011;10914;48.886;9.394;2023-05-10T02:04:01;26.55;;;25.17;;
21505;SDS011;10914;48.886;9.394;2023-05-10T02:06:27;23.02;;;21.92;;
21505;SDS011;10914;48.886;9.394;2023-05-10T02:08:53;23.67;;;22.58;;
21505;SDS011;10914;48.886;9.394;2023-05-10T02:11:18;28.67;;;27.33;;
21505;SDS011;10914;48.886;9.394;2023-05-10T02:13:46;23.55;;;22.35;;
21505;SDS011;10914;48.886;9.394;2023-05-10T02:16:12;22.90;;;21.80;;
21505;SDS011;10914;48.886;9.394;2023-05-10T02:18:38;24.58;;;23.33;;
21505;SDS011;10914;48.886;9.394;2023-05-10T02:21:05;37.83;;;36.03;;
21505;SDS011;10914;48.886;9.394;2023-05-10T02:23:30;27.17;;;25.83;;
21505;SDS011;10914;48.886;9.394;2023-05-10T02:25:56;28.23;;;26.83;;
21505;SDS011;10914;48.886;9.394;2023-05-10T02:28:22;26.50;;;25.30;;
21505;SDS011;10914;48.886;9.394;2023-05-10T02:30:48;26.73;;;25.33;;
21505;SDS011;10914;48.886;9.394;2023-05-10T02:33:13;27.02;;;25.73;;
21505;SDS011;10914;48.886;9.394;2023-05-10T02:35:39;27.20;;;25.90;;
21505;SDS011;10914;48.886;9.394;2023-05-10T02:38:04;40.40;;;38.53;;
21505;SDS011;10914;48.886;9.394;2023-05-10T02:40:30;49.20;;;46.85;;
21505;SDS011;10914;48.886;9.394;2023-05-10T02:42:57;36.58;;;34.70;;
21505;SDS011;10914;48.886;9.394;2023-05-10T02:45:25;46.33;;;44.10;;
21505;SDS011;10914;48.886;9.394;2023-05-10T02:47:52;36.97;;;35.10;;
21505;SDS011;10914;48.886;9.394;2023-05-10T02:50:18;51.88;;;49.42;;
21505;SDS011;10914;48.886;9.394;2023-05-10T02:52:47;41.15;;;39.05;;
21505;SDS011;10914;48.886;9.394;2023-05-10T02:55:13;39.55;;;37.60;;
21505;SDS011;10914;48.886;9.394;2023-05-10T02:57:48;51.88;;;49.40;;
21505;SDS011;10914;48.886;9.394;2023-05-10T03:00:15;56.83;;;54.08;;
21505;SDS011;10914;48.886;9.394;2023-05-10T03:02:41;51.20;;;48.55;;
21505;SDS011;10914;48.886;9.394;2023-05-10T03:05:06;50.78;;;48.35;;
21505;SDS011;10914;48.886;9.394;2023-05-10T03:07:32;54.92;;;52.28;;
21505;SDS011;10914;48.886;9.394;2023-05-10T03:09:58;53.88;;;51.28;;
21505;SDS011;10914;48.886;9.394;2023-05-10T03:20:04;55.70;;;53.08;;
21505;SDS011;10914;48.886;9.394;2023-05-10T03:22:32;52.03;;;49.50;;
21505;SDS011;10914;48.886;9.394;2023-05-10T03:24:59;51.67;;;49.13;;
21505;SDS011;10914;48.886;9.394;2023-05-10T03:27:26;52.97;;;50.47;;
21505;SDS011;10914;48.886;9.394;2023-05-10T03:29:52;47.65;;;45.40;;
21505;SDS011;10914;48.886;9.394;2023-05-10T03:32:18;47.58;;;45.33;;
21505;SDS011;10914;48.886;9.394;2023-05-10T03:34:43;45.17;;;42.97;;
21505;SDS011;10914;48.886;9.394;2023-05-10T03:37:09;50.17;;;47.77;;
21505;SDS011;10914;48.886;9.394;2023-05-10T03:39:34;45.85;;;43.65;;
21505;SDS011;10914;48.886;9.394;2023-05-10T03:41:59;58.40;;;55.70;;
21505;SDS011;10914;48.886;9.394;2023-05-10T03:44:24;54.63;;;52.05;;
21505;SDS011;10914;48.886;9.394;2023-05-10T03:46:49;48.13;;;45.88;;
21505;SDS011;10914;48.886;9.394;2023-05-10T03:49:15;48.57;;;46.00;;
21505;SDS011;10914;48.886;9.394;2023-05-10T03:51:40;49.40;;;47.08;;
21505;SDS011;10914;48.886;9.394;2023-05-10T03:54:05;73.50;;;70.05;;
21505;SDS011;10914;48.886;9.394;2023-05-10T03:56:30;55.17;;;52.53;;
21505;SDS011;10914;48.886;9.394;2023-05-10T03:58:55;50.20;;;47.73;;
21505;SDS011;10914;48.886;9.394;2023-05-10T04:01:20;47.47;;;45.03;;
21505;SDS011;10914;48.886;9.394;2023-05-10T04:03:46;40.78;;;38.55;;
21505;SDS011;10914;48.886;9.394;2023-05-10T04:06:11;42.07;;;39.97;;
21505;SDS011;10914;48.886;9.394;2023-05-10T04:08:36;49.00;;;46.70;;
21505;SDS011;10914;48.886;9.394;2023-05-10T04:11:08;45.10;;;42.92;;
21505;SDS011;10914;48.886;9.394;2023-05-10T04:13:34;47.17;;;44.88;;
21505;SDS011;10914;48.886;9.394;2023-05-10T04:15:59;55.00;;;52.35;;
21505;SDS011;10914;48.886;9.394;2023-05-10T04:18:25;56.87;;;54.07;;
21505;SDS011;10914;48.886;9.394;2023-05-10T04:20:50;32.13;;;30.33;;
21505;SDS011;10914;48.886;9.394;2023-05-10T04:23:15;40.25;;;38.22;;
21505;SDS011;10914;48.886;9.394;2023-05-10T04:25:41;29.40;;;27.70;;
21505;SDS011;10914;48.886;9.394;2023-05-10T04:28:07;32.72;;;31.13;;
21505;SDS011;10914;48.886;9.394;2023-05-10T04:30:32;42.28;;;40.20;;
21505;SDS011;10914;48.886;9.394;2023-05-10T04:32:57;27.95;;;26.45;;
21505;SDS011;10914;48.886;9.394;2023-05-10T04:35:23;28.20;;;26.73;;
21505;SDS011;10914;48.886;9.394;2023-05-10T04:37:48;28.67;;;27.17;;
21505;SDS011;10914;48.886;9.394;2023-05-10T04:40:13;28.13;;;26.60;;
21505;SDS011;10914;48.886;9.394;2023-05-10T04:42:39;30.52;;;28.73;;
21505;SDS011;10914;48.886;9.394;2023-05-10T04:45:05;32.38;;;30.67;;
21505;SDS011;10914;48.886;9.394;2023-05-10T04:47:30;39.53;;;37.47;;
21505;SDS011;10914;48.886;9.394;2023-05-10T04:49:55;44.25;;;42.05;;
21505;SDS011;10914;48.886;9.394;2023-05-10T04:52:20;46.33;;;43.95;;
21505;SDS011;10914;48.886;9.394;2023-05-10T04:54:46;38.40;;;36.37;;
21505;SDS011;10914;48.886;9.394;2023-05-10T04:57:11;31.45;;;29.85;;
21505;SDS011;10914;48.886;9.394;2023-05-10T04:59:36;29.60;;;28.10;;
21505;SDS011;10914;48.886;9.394;2023-05-10T05:02:02;28.90;;;27.40;;
21505;SDS011;10914;48.886;9.394;2023-05-10T05:04:29;35.22;;;33.38;;
21505;SDS011;10914;48.886;9.394;2023-05-10T05:06:54;39.05;;;37.03;;
21505;SDS011;10914;48.886;9.394;2023-05-10T05:09:19;34.50;;;32.77;;
21505;SDS011;10914;48.886;9.394;2023-05-10T05:11:44;30.70;;;29.10;;
21505;SDS011;10914;48.886;9.394;2023-05-10T05:14:10;30.58;;;28.98;;
21505;SDS011;10914;48.886;9.394;2023-05-10T05:16:35;30.97;;;29.33;;
21505;SDS011;10914;48.886;9.394;2023-05-10T05:19:00;28.00;;;26.55;;
21505;SDS011;10914;48.886;9.394;2023-05-10T05:21:26;26.15;;;24.42;;
21505;SDS011;10914;48.886;9.394;2023-05-10T05:23:52;26.35;;;24.83;;
21505;SDS011;10914;48.886;9.394;2023-05-10T05:26:17;26.93;;;25.53;;
21505;SDS011;10914;48.886;9.394;2023-05-10T05:28:42;23.77;;;22.50;;
21505;SDS011;10914;48.886;9.394;2023-05-10T05:31:07;23.23;;;22.02;;
21505;SDS011;10914;48.886;9.394;2023-05-10T05:33:33;24.23;;;22.92;;
21505;SDS011;10914;48.886;9.394;2023-05-10T05:36:02;23.65;;;22.45;;
21505;SDS011;10914;48.886;9.394;2023-05-10T05:38:27;26.13;;;24.75;;
21505;SDS011;10914;48.886;9.394;2023-05-10T05:40:53;28.40;;;26.90;;
21505;SDS011;10914;48.886;9.394;2023-05-10T05:43:18;26.53;;;25.13;;
21505;SDS011;10914;48.886;9.394;2023-05-10T05:45:43;27.85;;;26.45;;
21505;SDS011;10914;48.886;9.394;2023-05-10T05:48:08;26.57;;;25.13;;
21505;SDS011;10914;48.886;9.394;2023-05-10T05:50:33;29.48;;;27.90;;
21505;SDS011;10914;48.886;9.394;2023-05-10T05:52:59;31.40;;;29.87;;
21505;SDS011;10914;48.886;9.394;2023-05-10T05:55:24;30.63;;;29.10;;
21505;SDS011;10914;48.886;9.394;2023-05-10T05:57:51;33.20;;;31.60;;
21505;SDS011;10914;48.886;9.394;2023-05-10T06:00:16;35.15;;;33.45;;
21505;SDS011;10914;48.886;9.394;2023-05-10T06:02:42;38.33;;;36.40;;
21505;SDS011;10914;48.886;9.394;2023-05-10T06:05:07;38.70;;;36.80;;
21505;SDS011;10914;48.886;9.394;2023-05-10T06:07:32;39.80;;;37.85;;
21505;SDS011;10914;48.886;9.394;2023-05-10T06:09:58;37.97;;;36.10;;
21505;SDS011;10914;48.886;9.394;2023-05-10T06:12:23;33.55;;;31.63;;
21505;SDS011;10914;48.886;9.394;2023-05-10T06:14:48;32.55;;;30.95;;
21505;SDS011;10914;48.886;9.394;2023-05-10T06:17:13;35.20;;;33.27;;
21505;SDS011;10914;48.886;9.394;2023-05-10T06:19:38;34.83;;;32.85;;
21505;SDS011;10914;48.886;9.394;2023-05-10T06:22:04;41.28;;;39.08;;
21505;SDS011;10914;48.886;9.394;2023-05-10T06:24:29;40.47;;;38.47;;
21505;SDS011;10914;48.886;9.394;2023-05-10T06:26:54;34.22;;;32.47;;
21505;SDS011;10914;48.886;9.394;2023-05-10T06:29:19;30.97;;;29.27;;
21505;SDS011;10914;48.886;9.394;2023-05-10T06:31:45;27.77;;;26.35;;
21505;SDS011;10914;48.886;9.394;2023-05-10T06:34:10;30.17;;;28.58;;
21505;SDS011;10914;48.886;9.394;2023-05-10T06:36:36;30.17;;;28.65;;
21505;SDS011;10914;48.886;9.394;2023-05-10T06:39:01;28.17;;;26.52;;
21505;SDS011;10914;48.886;9.394;2023-05-10T06:41:27;26.98;;;25.60;;
21505;SDS011;10914;48.886;9.394;2023-05-10T06:43:52;27.23;;;25.83;;
21505;SDS011;10914;48.886;9.394;2023-05-10T06:46:17;26.27;;;24.98;;
21505;SDS011;10914;48.886;9.394;2023-05-10T06:48:43;27.77;;;26.23;;
21505;SDS011;10914;48.886;9.394;2023-05-10T06:51:08;30.73;;;29.15;;
21505;SDS011;10914;48.886;9.394;2023-05-10T06:53:33;36.97;;;34.97;;
21505;SDS011;10914;48.886;9.394;2023-05-10T06:55:59;34.20;;;32.45;;
21505;SDS011;10914;48.886;9.394;2023-05-10T06:58:24;32.58;;;30.73;;
21505;SDS011;10914;48.886;9.394;2023-05-10T07:00:49;33.30;;;31.50;;
21505;SDS011;10914;48.886;9.394;2023-05-10T07:03:14;33.70;;;31.90;;
21505;SDS011;10914;48.886;9.394;2023-05-10T07:05:40;33.30;;;31.65;;
21505;SDS011;10914;48.886;9.394;2023-05-10T07:08:05;32.40;;;30.75;;
21505;SDS011;10914;48.886;9.394;2023-05-10T07:10:31;29.92;;;28.42;;
21505;SDS011;10914;48.886;9.394;2023-05-10T07:12:56;25.48;;;24.08;;
21505;SDS011;10914;48.886;9.394;2023-05-10T07:15:21;23.90;;;22.60;;
21505;SDS011;10914;48.886;9.394;2023-05-10T07:17:46;22.45;;;21.25;;
21505;SDS011;10914;48.886;9.394;2023-05-10T07:20:12;23.60;;;22.40;;
21505;SDS011;10914;48.886;9.394;2023-05-10T07:22:37;23.42;;;22.23;;
21505;SDS011;10914;48.886;9.394;2023-05-10T07:25:02;23.48;;;22.30;;
21505;SDS011;10914;48.886;9.394;2023-05-10T07:27:28;26.48;;;25.15;;
21505;SDS011;10914;48.886;9.394;2023-05-10T07:29:53;22.98;;;21.77;;
21505;SDS011;10914;48.886;9.394;2023-05-10T07:32:19;21.98;;;20.75;;
21505;SDS011;10914;48.886;9.394;2023-05-10T07:34:44;21.70;;;20.50;;
21505;SDS011;10914;48.886;9.394;2023-05-10T07:37:10;22.53;;;21.33;;
21505;SDS011;10914;48.886;9.394;2023-05-10T07:39:35;22.90;;;21.70;;
21505;SDS011;10914;48.886;9.394;2023-05-10T07:42:00;22.43;;;21.20;;
21505;SDS011;10914;48.886;9.394;2023-05-10T07:44:25;25.60;;;24.33;;
21505;SDS011;10914;48.886;9.394;2023-05-10T07:46:50;23.13;;;21.85;;
21505;SDS011;10914;48.886;9.394;2023-05-10T07:49:16;23.63;;;22.25;;
21505;SDS011;10914;48.886;9.394;2023-05-10T07:51:41;23.30;;;21.75;;
21505;SDS011;10914;48.886;9.394;2023-05-10T07:54:07;22.85;;;21.60;;
21505;SDS011;10914;48.886;9.394;2023-05-10T07:56:32;25.52;;;24.20;;
21505;SDS011;10914;48.886;9.394;2023-05-10T07:59:02;22.40;;;21.30;;
21505;SDS011;10914;48.886;9.394;2023-05-10T08:01:32;26.55;;;25.25;;
21505;SDS011;10914;48.886;9.394;2023-05-10T08:03:57;24.52;;;23.33;;
21505;SDS011;10914;48.886;9.394;2023-05-10T08:06:22;21.20;;;20.20;;
21505;SDS011;10914;48.886;9.394;2023-05-10T08:08:48;23.45;;;22.25;;
21505;SDS011;10914;48.886;9.394;2023-05-10T08:11:18;25.38;;;23.98;;
21505;SDS011;10914;48.886;9.394;2023-05-10T08:13:53;22.02;;;20.83;;
21505;SDS011;10914;48.886;9.394;2023-05-10T08:16:21;23.40;;;22.27;;
21505;SDS011;10914;48.886;9.394;2023-05-10T08:18:46;23.10;;;21.90;;
21505;SDS011;10914;48.886;9.394;2023-05-10T08:21:12;23.70;;;22.50;;
21505;SDS011;10914;48.886;9.394;2023-05-10T08:23:37;24.25;;;23.05;;
21505;SDS011;10914;48.886;9.394;2023-05-10T08:26:02;24.83;;;23.60;;
21505;SDS011;10914;48.886;9.394;2023-05-10T08:28:28;23.63;;;22.52;;
21505;SDS011;10914;48.886;9.394;2023-05-10T08:30:53;23.50;;;22.40;;
21505;SDS011;10914;48.886;9.394;2023-05-10T08:33:18;23.67;;;22.48;;
21505;SDS011;10914;48.886;9.394;2023-05-10T08:35:44;24.63;;;23.42;;
21505;SDS011;10914;48.886;9.394;2023-05-10T08:38:09;24.83;;;23.60;;
21505;SDS011;10914;48.886;9.394;2023-05-10T08:40:36;22.00;;;20.90;;
21505;SDS011;10914;48.886;9.394;2023-05-10T08:43:05;23.92;;;22.83;;
21505;SDS011;10914;48.886;9.394;2023-05-10T08:45:36;20.60;;;19.60;;
21505;SDS011;10914;48.886;9.394;2023-05-10T08:48:02;21.20;;;20.08;;
21505;SDS011;10914;48.886;9.394;2023-05-10T08:50:30;22.98;;;21.90;;
21505;SDS011;10914;48.886;9.394;2023-05-10T08:52:57;21.50;;;20.50;;
21505;SDS011;10914;48.886;9.394;2023-05-10T08:55:23;23.45;;;22.35;;
21505;SDS011;10914;48.886;9.394;2023-05-10T08:57:49;21.67;;;20.52;;
21505;SDS011;10914;48.886;9.394;2023-05-10T09:00:17;23.23;;;21.92;;
21505;SDS011;10914;48.886;9.394;2023-05-10T09:02:43;20.60;;;19.65;;
21505;SDS011;10914;48.886;9.394;2023-05-10T09:05:09;21.00;;;20.00;;
21505;SDS011;10914;48.886;9.394;2023-05-10T09:07:35;20.63;;;19.58;;
21505;SDS011;10914;48.886;9.394;2023-05-10T09:10:01;19.95;;;19.05;;
21505;SDS011;10914;48.886;9.394;2023-05-10T09:12:27;19.67;;;18.77;;
21505;SDS011;10914;48.886;9.394;2023-05-10T09:14:52;19.77;;;18.88;;
21505;SDS011;10914;48.886;9.394;2023-05-10T09:17:19;19.75;;;18.85;;
21505;SDS011;10914;48.886;9.394;2023-05-10T09:19:45;19.90;;;18.90;;
21505;SDS011;10914;48.886;9.394;2023-05-10T09:22:10;19.65;;;18.60;;
21505;SDS011;10914;48.886;9.394;2023-05-10T09:24:35;19.83;;;18.83;;
21505;SDS011;10914;48.886;9.394;2023-05-10T09:27:01;19.65;;;18.65;;
21505;SDS011;10914;48.886;9.394;2023-05-10T09:29:38;19.23;;;18.23;;
21505;SDS011;10914;48.886;9.394;2023-05-10T09:32:03;19.77;;;18.73;;
21505;SDS011;10914;48.886;9.394;2023-05-10T09:34:30;19.77;;;18.80;;
21505;SDS011;10914;48.886;9.394;2023-05-10T09:36:56;19.67;;;18.77;;
21505;SDS011;10914;48.886;9.394;2023-05-10T09:39:34;20.38;;;19.20;;
21505;SDS011;10914;48.886;9.394;2023-05-10T09:42:01;20.08;;;19.17;;
21505;SDS011;10914;48.886;9.394;2023-05-10T09:44:28;20.67;;;19.67;;
21505;SDS011;10914;48.886;9.394;2023-05-10T09:46:53;19.48;;;18.50;;
21505;SDS011;10914;48.886;9.394;2023-05-10T09:49:22;19.90;;;18.83;;
21505;SDS011;10914;48.886;9.394;2023-05-10T09:51:47;20.25;;;19.30;;
21505;SDS011;10914;48.886;9.394;2023-05-10T09:54:22;20.05;;;18.92;;
21505;SDS011;10914;48.886;9.394;2023-05-10T09:56:48;19.58;;;18.67;;
21505;SDS011;10914;48.886;9.394;2023-05-10T09:59:14;20.52;;;19.45;;
21505;SDS011;10914;48.886;9.394;2023-05-10T10:01:39;20.20;;;19.30;;
21505;SDS011;10914;48.886;9.394;2023-05-10T10:04:06;20.50;;;19.50;;
21505;SDS011;10914;48.886;9.394;2023-05-10T10:06:36;20.90;;;19.90;;
21505;SDS011;10914;48.886;9.394;2023-05-10T10:09:02;21.05;;;19.95;;
21505;SDS011;10914;48.886;9.394;2023-05-10T10:11:27;21.20;;;20.20;;
21505;SDS011;10914;48.886;9.394;2023-05-10T10:13:53;20.85;;;19.85;;
21505;SDS011;10914;48.886;9.394;2023-05-10T10:16:18;20.85;;;19.85;;
21505;SDS011;10914;48.886;9.394;2023-05-10T10:18:44;20.63;;;19.67;;
21505;SDS011;10914;48.886;9.394;2023-05-10T10:21:09;19.58;;;18.67;;
21505;SDS011;10914;48.886;9.394;2023-05-10T10:23:35;20.42;;;19.42;;
21505;SDS011;10914;48.886;9.394;2023-05-10T10:26:00;19.95;;;19.00;;
21505;SDS011;10914;48.886;9.394;2023-05-10T10:31:01;21.75;;;20.75;;
21505;SDS011;10914;48.886;9.394;2023-05-10T10:33:51;20.30;;;19.30;;
21505;SDS011;10914;48.886;9.394;2023-05-10T10:36:17;21.42;;;20.33;;
21505;SDS011;10914;48.886;9.394;2023-05-10T10:41:33;18.60;;;17.73;;
21505;SDS011;10914;48.886;9.394;2023-05-10T10:47:28;20.02;;;19.13;;
21505;SDS011;10914;48.886;9.394;2023-05-10T10:50:12;18.90;;;18.00;;
21505;SDS011;10914;48.886;9.394;2023-05-10T10:52:22;19.67;;;18.75;;
21505;SDS011;10914;48.886;9.394;2023-05-10T10:54:57;19.50;;;18.60;;
21505;SDS011;10914;48.886;9.394;2023-05-10T10:57:23;20.02;;;19.08;;
21505;SDS011;10914;48.886;9.394;2023-05-10T10:59:48;19.83;;;18.92;;
21505;SDS011;10914;48.886;9.394;2023-05-10T11:02:33;18.75;;;17.92;;
21505;SDS011;10914;48.886;9.394;2023-05-10T11:04:59;20.10;;;19.00;;
21505;SDS011;10914;48.886;9.394;2023-05-10T11:07:24;21.30;;;20.35;;
21505;SDS011;10914;48.886;9.394;2023-05-10T11:09:49;20.13;;;19.13;;
21505;SDS011;10914;48.886;9.394;2023-05-10T11:12:15;20.88;;;19.88;;
21505;SDS011;10914;48.886;9.394;2023-05-10T11:14:40;21.65;;;20.75;;
21505;SDS011;10914;48.886;9.394;2023-05-10T11:17:27;20.67;;;19.63;;
21505;SDS011;10914;48.886;9.394;2023-05-10T11:20:07;20.63;;;19.63;;
21505;SDS011;10914;48.886;9.394;2023-05-10T11:22:48;20.75;;;19.75;;
21505;SDS011;10914;48.886;9.394;2023-05-10T11:25:14;19.80;;;18.80;;
21505;SDS011;10914;48.886;9.394;2023-05-10T11:27:39;20.25;;;19.25;;
21505;SDS011;10914;48.886;9.394;2023-05-10T11:30:05;19.27;;;18.33;;
21505;SDS011;10914;48.886;9.394;2023-05-10T11:32:31;20.27;;;19.27;;
21505;SDS011;10914;48.886;9.394;2023-05-10T11:34:57;19.20;;;18.30;;
21505;SDS011;10914;48.886;9.394;2023-05-10T11:37:22;19.23;;;18.38;;
21505;SDS011;10914;48.886;9.394;2023-05-10T11:39:47;18.73;;;17.93;;
21505;SDS011;10914;48.886;9.394;2023-05-10T11:42:12;20.33;;;19.33;;
21505;SDS011;10914;48.886;9.394;2023-05-10T11:44:37;21.13;;;20.03;;
21505;SDS011;10914;48.886;9.394;2023-05-10T11:47:03;18.52;;;17.73;;
21505;SDS011;10914;48.886;9.394;2023-05-10T11:49:28;18.45;;;17.52;;
21505;SDS011;10914;48.886;9.394;2023-05-10T11:52:02;19.38;;;18.48;;
21505;SDS011;10914;48.886;9.394;2023-05-10T11:54:28;19.73;;;18.83;;
21505;SDS011;10914;48.886;9.394;2023-05-10T11:56:53;19.60;;;18.70;;
21505;SDS011;10914;48.886;9.394;2023-05-10T11:59:19;20.75;;;19.50;;
21505;SDS011;10914;48.886;9.394;2023-05-10T12:01:44;19.98;;;18.95;;
21505;SDS011;10914;48.886;9.394;2023-05-10T12:04:10;20.15;;;19.25;;
21505;SDS011;10914;48.886;9.394;2023-05-10T12:06:37;21.23;;;20.15;;
21505;SDS011;10914;48.886;9.394;2023-05-10T12:09:06;21.88;;;20.88;;
21505;SDS011;10914;48.886;9.394;2023-05-10T12:11:35;21.70;;;20.70;;
21505;SDS011;10914;48.886;9.394;2023-05-10T12:14:03;21.02;;;20.02;;
21505;SDS011;10914;48.886;9.394;2023-05-10T12:16:29;21.05;;;19.95;;
21505;SDS011;10914;48.886;9.394;2023-05-10T12:18:58;21.58;;;20.45;;
21505;SDS011;10914;48.886;9.394;2023-05-10T12:21:24;21.27;;;20.17;;
21505;SDS011;10914;48.886;9.394;2023-05-10T12:23:50;23.05;;;21.85;;
21505;SDS011;10914;48.886;9.394;2023-05-10T12:26:15;22.02;;;20.92;;
21505;SDS011;10914;48.886;9.394;2023-05-10T12:28:41;21.67;;;20.58;;
21505;SDS011;10914;48.886;9.394;2023-05-10T12:31:06;21.35;;;20.23;;
21505;SDS011;10914;48.886;9.394;2023-05-10T12:33:35;21.77;;;20.75;;
21505;SDS011;10914;48.886;9.394;2023-05-10T12:36:00;22.40;;;21.13;;
21505;SDS011;10914;48.886;9.394;2023-05-10T12:38:34;22.23;;;21.13;;
21505;SDS011;10914;48.886;9.394;2023-05-10T12:41:04;21.10;;;20.00;;
21505;SDS011;10914;48.886;9.394;2023-05-10T12:43:30;20.02;;;18.95;;
21505;SDS011;10914;48.886;9.394;2023-05-10T12:45:56;20.33;;;19.17;;
21505;SDS011;10914;48.886;9.394;2023-05-10T12:48:21;20.45;;;19.35;;
21505;SDS011;10914;48.886;9.394;2023-05-10T12:50:46;21.35;;;20.27;;
21505;SDS011;10914;48.886;9.394;2023-05-10T12:53:13;21.85;;;20.65;;
21505;SDS011;10914;48.886;9.394;2023-05-10T12:55:38;21.67;;;20.58;;
21505;SDS011;10914;48.886;9.394;2023-05-10T12:58:04;20.48;;;19.38;;
21505;SDS011;10914;48.886;9.394;2023-05-10T13:00:29;19.98;;;18.95;;
21505;SDS011;10914;48.886;9.394;2023-05-10T13:02:54;19.93;;;18.77;;
21505;SDS011;10914;48.886;9.394;2023-05-10T13:05:21;20.27;;;19.08;;
21505;SDS011;10914;48.886;9.394;2023-05-10T13:07:46;20.00;;;19.00;;
21505;SDS011;10914;48.886;9.394;2023-05-10T13:10:11;19.90;;;18.75;;
21505;SDS011;10914;48.886;9.394;2023-05-10T13:12:36;18.43;;;17.53;;
21505;SDS011;10914;48.886;9.394;2023-05-10T13:15:02;20.13;;;19.15;;
21505;SDS011;10914;48.886;9.394;2023-05-10T13:17:28;20.67;;;19.67;;
21505;SDS011;10914;48.886;9.394;2023-05-10T13:19:53;20.30;;;19.02;;
21505;SDS011;10914;48.886;9.394;2023-05-10T13:22:18;19.27;;;18.37;;
21505;SDS011;10914;48.886;9.394;2023-05-10T13:24:43;19.53;;;18.53;;
21505;SDS011;10914;48.886;9.394;2023-05-10T13:27:08;18.90;;;18.00;;
21505;SDS011;10914;48.886;9.394;2023-05-10T13:29:34;20.65;;;19.52;;
21505;SDS011;10914;48.886;9.394;2023-05-10T13:31:59;21.42;;;20.42;;
21505;SDS011;10914;48.886;9.394;2023-05-10T13:34:25;19.77;;;18.77;;
21505;SDS011;10914;48.886;9.394;2023-05-10T13:36:50;19.60;;;18.60;;
21505;SDS011;10914;48.886;9.394;2023-05-10T13:39:15;19.77;;;18.77;;
21505;SDS011;10914;48.886;9.394;2023-05-10T13:41:41;20.02;;;18.92;;
21505;SDS011;10914;48.886;9.394;2023-05-10T13:44:06;21.88;;;20.83;;
21505;SDS011;10914;48.886;9.394;2023-05-10T13:46:32;22.08;;;21.02;;
21505;SDS011;10914;48.886;9.394;2023-05-10T13:48:57;20.20;;;19.20;;
21505;SDS011;10914;48.886;9.394;2023-05-10T13:51:22;21.90;;;20.70;;
21505;SDS011;10914;48.886;9.394;2023-05-10T13:53:47;20.80;;;19.80;;
21505;SDS011;10914;48.886;9.394;2023-05-10T13:56:13;19.52;;;18.63;;
21505;SDS011;10914;48.886;9.394;2023-05-10T13:58:38;19.30;;;18.20;;
21505;SDS011;10914;48.886;9.394;2023-05-10T14:01:03;19.30;;;18.40;;
21505;SDS011;10914;48.886;9.394;2023-05-10T14:03:30;19.00;;;18.00;;
21505;SDS011;10914;48.886;9.394;2023-05-10T14:05:55;18.70;;;17.80;;
21505;SDS011;10914;48.886;9.394;2023-05-10T14:08:20;19.02;;;18.13;;
21505;SDS011;10914;48.886;9.394;2023-05-10T14:10:45;19.53;;;18.63;;
21505;SDS011;10914;48.886;9.394;2023-05-10T14:13:11;19.08;;;18.17;;
21505;SDS011;10914;48.886;9.394;2023-05-10T14:15:37;19.08;;;18.08;;
21505;SDS011;10914;48.886;9.394;2023-05-10T14:18:02;20.75;;;19.35;;
21505;SDS011;10914;48.886;9.394;2023-05-10T14:20:27;20.17;;;19.23;;
21505;SDS011;10914;48.886;9.394;2023-05-10T14:22:52;19.83;;;18.93;;
21505;SDS011;10914;48.886;9.394;2023-05-10T14:25:17;20.75;;;19.63;;
21505;SDS011;10914;48.886;9.394;2023-05-10T14:27:43;19.13;;;18.23;;
21505;SDS011;10914;48.886;9.394;2023-05-10T14:30:08;19.90;;;19.00;;
21505;SDS011;10914;48.886;9.394;2023-05-10T14:32:33;19.33;;;18.33;;
21505;SDS011;10914;48.886;9.394;2023-05-10T14:34:59;19.80;;;18.77;;
21505;SDS011;10914;48.886;9.394;2023-05-10T14:37:24;20.05;;;18.80;;
21505;SDS011;10914;48.886;9.394;2023-05-10T14:39:49;19.90;;;18.90;;
21505;SDS011;10914;48.886;9.394;2023-05-10T14:42:15;20.53;;;19.53;;
21505;SDS011;10914;48.886;9.394;2023-05-10T14:44:40;25.05;;;23.65;;
21505;SDS011;10914;48.886;9.394;2023-05-10T14:47:05;31.02;;;27.77;;